Terminal Aerodrome Forecast
Issued by NWS Norman, OK

Home | Current Version | Previous Version | Text Only | Print | Product List | Glossary On
Versions: 1 2 3 4 5 6 7 8 9 10 11 12
000
FTUS44 KOUN 211721
TAFOKC
TAF
KOKC 211721Z 2118/2218 08010G15KT 4SM -RA BR OVC009
      TEMPO 2118/2120 2SM RA
     FM212200 02010KT 5SM -RA BR OVC007
     FM220300 35011KT 6SM -RA BR OVC007
     FM220600 32010KT 4SM BR OVC007
     FM221200 32014KT P6SM OVC007
     FM221500 32017KT P6SM OVC015=

USA.gov is the U.S. government's official web portal to all federal, state and local government web resources and services.